Time;durP1;ratioP1;P1;durP2;ratioP2;P2;SDS_P1;SDS_P2;PMS_P1;PMS_P2;Temp;Humidity;BMP_temperature;BMP_pressure;BME280_temperature;BME280_humidity;BME280_pressure;Samples;Min_cycle;Max_cycle;Signal;HPM_P1;HPM_P2
2024/03/01 00:01:46;;;;;;;6.20;2.60;;;;;;;;;;5044625;28;20056;-73
2024/03/01 00:04:19;;;;;;;6.00;2.60;;;;;;;;;;5044555;28;20059;-74
2024/03/01 00:06:52;;;;;;;7.25;2.15;;;;;;;;;;5043834;28;20052;-74
2024/03/01 00:09:22;;;;;;;8.60;2.30;;;;;;;;;;5042751;28;20616;-74
2024/03/01 00:11:52;;;;;;;8.90;2.55;;;;;;;;;;5044444;28;20048;-72
2024/03/01 00:14:23;;;;;;;7.90;2.38;;;;;;;;;;5044521;28;20053;-73
2024/03/01 00:16:53;;;;;;;8.57;2.28;;;;;;;;;;5044182;28;20036;-72
2024/03/01 00:19:27;;;;;;;6.80;2.22;;;;;;;;;;5044511;28;20052;-73
2024/03/01 00:21:57;;;;;;;9.85;2.30;;;;;;;;;;5044237;28;20048;-73
2024/03/01 00:24:28;;;;;;;8.95;3.15;;;;;;;;;;5043919;28;20052;-73
2024/03/01 00:26:58;;;;;;;11.07;3.05;;;;;;;;;;5043944;28;20055;-73
2024/03/01 00:29:29;;;;;;;6.75;3.03;;;;;;;;;;5043803;28;20496;-73
2024/03/01 00:31:59;;;;;;;7.75;2.47;;;;;;;;;;5032158;28;20919;-76
2024/03/01 00:34:30;;;;;;;6.93;2.83;;;;;;;;;;5023777;28;20072;-73
2024/03/01 00:37:01;;;;;;;10.55;2.28;;;;;;;;;;5024101;28;20057;-74
2024/03/01 00:39:32;;;;;;;5.63;2.30;;;;;;;;;;5024314;28;20099;-73
2024/03/01 00:42:03;;;;;;;8.75;2.38;;;;;;;;;;5024062;28;20508;-73
2024/03/01 00:44:32;;;;;;;10.63;1.80;;;;;;;;;;5023776;28;20045;-73
2024/03/01 00:47:03;;;;;;;7.25;2.03;;;;;;;;;;5023627;28;20041;-73
2024/03/01 00:49:34;;;;;;;6.57;1.73;;;;;;;;;;5023555;28;21176;-73
2024/03/01 00:52:05;;;;;;;5.38;1.77;;;;;;;;;;5023674;28;20052;-75
2024/03/01 00:54:36;;;;;;;4.03;1.95;;;;;;;;;;5023568;28;20049;-78
2024/03/01 00:57:06;;;;;;;7.00;1.95;;;;;;;;;;5023869;28;20048;-74
2024/03/01 00:59:36;;;;;;;6.03;2.10;;;;;;;;;;5024053;28;20053;-73
2024/03/01 01:02:08;;;;;;;6.07;2.30;;;;;;;;;;5023002;28;20496;-74
2024/03/01 01:04:40;;;;;;;9.77;2.15;;;;;;;;;;5023630;28;20045;-73
2024/03/01 01:07:11;;;;;;;6.50;2.20;;;;;;;;;;5023313;28;20618;-74
2024/03/01 01:09:40;;;;;;;8.02;2.13;;;;;;;;;;5023313;28;20053;-74
2024/03/01 01:12:12;;;;;;;4.53;2.17;;;;;;;;;;5023650;28;20041;-75
2024/03/01 01:14:43;;;;;;;4.97;1.77;;;;;;;;;;5023222;28;20049;-74
2024/03/01 01:17:13;;;;;;;6.63;2.13;;;;;;;;;;5023241;28;20038;-75
2024/03/01 01:19:43;;;;;;;6.03;2.45;;;;;;;;;;5022731;28;20049;-73
2024/03/01 01:22:14;;;;;;;7.10;2.13;;;;;;;;;;5023518;28;20052;-74
2024/03/01 01:24:45;;;;;;;4.70;1.83;;;;;;;;;;5024242;28;20057;-74
2024/03/01 01:27:16;;;;;;;7.70;2.13;;;;;;;;;;5023007;28;20053;-77
2024/03/01 01:29:47;;;;;;;4.15;2.00;;;;;;;;;;5022259;28;20049;-73
2024/03/01 01:32:17;;;;;;;8.90;2.42;;;;;;;;;;5022829;28;20057;-74
2024/03/01 01:34:47;;;;;;;7.10;2.10;;;;;;;;;;5023310;28;20052;-75
2024/03/01 01:37:18;;;;;;;5.90;2.25;;;;;;;;;;5022873;28;20053;-74
2024/03/01 01:39:49;;;;;;;7.13;2.42;;;;;;;;;;5021534;28;20056;-73
2024/03/01 01:42:20;;;;;;;5.90;2.33;;;;;;;;;;5022347;28;21109;-74
2024/03/01 01:44:49;;;;;;;5.40;2.20;;;;;;;;;;5023026;28;20053;-74
2024/03/01 01:47:21;;;;;;;7.28;2.25;;;;;;;;;;5023187;28;20117;-74
2024/03/01 01:49:53;;;;;;;3.90;2.25;;;;;;;;;;5022596;28;20064;-74
2024/03/01 01:52:25;;;;;;;5.15;2.13;;;;;;;;;;5023384;28;20053;-74
2024/03/01 01:54:55;;;;;;;6.55;2.97;;;;;;;;;;5022446;28;20100;-74
2024/03/01 01:57:28;;;;;;;4.70;2.10;;;;;;;;;;5023150;28;20073;-74
2024/03/01 01:59:59;;;;;;;8.13;2.78;;;;;;;;;;5022952;28;20050;-72
2024/03/01 02:02:42;;;;;;;7.40;2.25;;;;;;;;;;5027333;28;20053;-74
2024/03/01 02:05:12;;;;;;;6.53;2.97;;;;;;;;;;5022637;28;20076;-73
2024/03/01 02:07:43;;;;;;;4.75;2.00;;;;;;;;;;5022711;28;20623;-73
2024/03/01 02:10:18;;;;;;;6.15;2.30;;;;;;;;;;5020115;28;20057;-73
2024/03/01 02:13:00;;;;;;;8.40;2.22;;;;;;;;;;5022186;28;20053;-73
2024/03/01 02:15:30;;;;;;;5.78;2.30;;;;;;;;;;5022063;28;20049;-74
2024/03/01 02:18:04;;;;;;;7.63;2.00;;;;;;;;;;5022453;28;20045;-77
2024/03/01 02:20:39;;;;;;;8.48;2.13;;;;;;;;;;5021419;28;20408;-73
2024/03/01 02:23:16;;;;;;;5.97;2.40;;;;;;;;;;5021762;28;20052;-73
2024/03/01 02:25:47;;;;;;;8.35;2.70;;;;;;;;;;5022259;28;20060;-72
2024/03/01 02:28:18;;;;;;;8.95;2.95;;;;;;;;;;5022267;28;20049;-74
2024/03/01 02:30:52;;;;;;;9.10;2.72;;;;;;;;;;5020377;28;20050;-72
2024/03/01 02:33:24;;;;;;;8.63;2.30;;;;;;;;;;5022557;28;20527;-73
2024/03/01 02:35:54;;;;;;;7.70;2.28;;;;;;;;;;5022570;28;20045;-72
2024/03/01 02:38:28;;;;;;;8.20;2.13;;;;;;;;;;5021909;28;20416;-74
2024/03/01 02:40:59;;;;;;;7.10;2.15;;;;;;;;;;5022042;28;20045;-74
2024/03/01 02:43:30;;;;;;;6.50;2.00;;;;;;;;;;5022538;28;20049;-74
2024/03/01 02:46:00;;;;;;;7.97;3.05;;;;;;;;;;5022361;28;20042;-73
2024/03/01 02:48:30;;;;;;;6.82;2.40;;;;;;;;;;5021656;28;20052;-74
2024/03/01 02:51:01;;;;;;;7.05;2.30;;;;;;;;;;5022288;28;20057;-74
2024/03/01 02:53:31;;;;;;;9.35;2.17;;;;;;;;;;5021218;28;20060;-72
2024/03/01 02:56:02;;;;;;;6.75;2.40;;;;;;;;;;5022126;28;20060;-74
2024/03/01 02:58:34;;;;;;;6.22;2.33;;;;;;;;;;5021644;28;20681;-73
2024/03/01 03:01:05;;;;;;;8.45;2.78;;;;;;;;;;5021761;28;20049;-73
2024/03/01 03:03:35;;;;;;;4.88;3.22;;;;;;;;;;5021871;28;20060;-73
2024/03/01 03:06:05;;;;;;;5.93;2.35;;;;;;;;;;5021783;28;20057;-74
2024/03/01 03:08:38;;;;;;;8.35;2.28;;;;;;;;;;5021295;28;20045;-73
2024/03/01 03:11:09;;;;;;;4.60;2.03;;;;;;;;;;5021651;28;20056;-74
2024/03/01 03:13:40;;;;;;;5.32;2.45;;;;;;;;;;5021413;28;20053;-74
2024/03/01 03:16:10;;;;;;;8.73;2.40;;;;;;;;;;5021770;28;20049;-74
2024/03/01 03:18:41;;;;;;;4.93;2.30;;;;;;;;;;5021158;28;20049;-73
2024/03/01 03:21:13;;;;;;;5.93;2.58;;;;;;;;;;5021309;28;20046;-75
2024/03/01 03:23:44;;;;;;;7.53;2.80;;;;;;;;;;5021873;28;20057;-73
2024/03/01 03:26:14;;;;;;;7.10;2.30;;;;;;;;;;5021744;28;20053;-73
2024/03/01 03:28:44;;;;;;;9.38;2.40;;;;;;;;;;5021698;28;20053;-74
2024/03/01 03:31:18;;;;;;;4.03;2.40;;;;;;;;;;5021715;28;20041;-75
2024/03/01 03:33:50;;;;;;;8.13;2.80;;;;;;;;;;5020568;28;20065;-74
2024/03/01 03:36:21;;;;;;;8.93;2.67;;;;;;;;;;5021411;28;20060;-73
2024/03/01 03:38:50;;;;;;;16.00;2.28;;;;;;;;;;5020247;28;20054;-74
2024/03/01 03:41:21;;;;;;;5.93;2.10;;;;;;;;;;5023670;28;20053;-74
2024/03/01 03:43:52;;;;;;;5.35;2.28;;;;;;;;;;5025173;28;20042;-73
2024/03/01 03:46:23;;;;;;;7.65;2.40;;;;;;;;;;5025065;28;20049;-74
2024/03/01 03:48:53;;;;;;;4.50;1.95;;;;;;;;;;5023307;28;20076;-74
2024/03/01 03:51:26;;;;;;;6.63;2.50;;;;;;;;;;5024648;28;20049;-75
2024/03/01 03:53:57;;;;;;;10.88;2.60;;;;;;;;;;5024861;28;20424;-74
2024/03/01 03:56:28;;;;;;;8.75;2.30;;;;;;;;;;5023198;28;20516;-74
2024/03/01 03:58:58;;;;;;;3.30;2.33;;;;;;;;;;5024673;28;20049;-73
2024/03/01 04:01:29;;;;;;;8.80;2.95;;;;;;;;;;5024636;28;20060;-73
2024/03/01 04:03:59;;;;;;;10.15;2.35;;;;;;;;;;5055899;28;20409;-73
2024/03/01 04:06:30;;;;;;;5.15;1.92;;;;;;;;;;5024890;28;20041;-73
2024/03/01 04:09:00;;;;;;;5.95;2.60;;;;;;;;;;5022559;28;20069;-74
2024/03/01 04:11:30;;;;;;;10.63;2.75;;;;;;;;;;5025230;28;20049;-74
2024/03/01 04:14:02;;;;;;;5.95;2.60;;;;;;;;;;5024734;28;20675;-74
2024/03/01 04:16:33;;;;;;;9.30;2.50;;;;;;;;;;5024668;28;20053;-74
2024/03/01 04:19:08;;;;;;;10.77;2.60;;;;;;;;;;5024669;28;20061;-74
2024/03/01 04:21:38;;;;;;;3.45;2.22;;;;;;;;;;5024400;28;20045;-74
2024/03/01 04:24:12;;;;;;;10.77;3.28;;;;;;;;;;5024016;28;20595;-74
2024/03/01 04:26:43;;;;;;;10.25;2.90;;;;;;;;;;5024433;28;20061;-73
2024/03/01 04:29:14;;;;;;;7.25;2.20;;;;;;;;;;5022198;28;20053;-75
2024/03/01 04:31:48;;;;;;;5.70;2.42;;;;;;;;;;5023617;28;20519;-74
2024/03/01 04:34:20;;;;;;;2.80;2.10;;;;;;;;;;5024185;28;20057;-74
2024/03/01 04:36:50;;;;;;;5.93;2.55;;;;;;;;;;5024206;28;20524;-74
2024/03/01 04:39:21;;;;;;;11.18;2.50;;;;;;;;;;5024418;28;20049;-74
2024/03/01 04:41:51;;;;;;;6.65;2.58;;;;;;;;;;5023847;28;20041;-75
2024/03/01 04:44:23;;;;;;;6.90;2.03;;;;;;;;;;5024654;28;20505;-74
2024/03/01 04:46:53;;;;;;;8.23;2.40;;;;;;;;;;5025198;28;20046;-73
2024/03/01 04:49:24;;;;;;;4.63;2.88;;;;;;;;;;5023979;28;20045;-74
2024/03/01 04:51:54;;;;;;;7.80;3.20;;;;;;;;;;5023292;28;20060;-75
2024/03/01 04:54:24;;;;;;;6.93;3.03;;;;;;;;;;5023691;28;20045;-73
2024/03/01 04:56:56;;;;;;;8.15;2.97;;;;;;;;;;5023706;28;20056;-75
2024/03/01 04:59:26;;;;;;;8.45;3.40;;;;;;;;;;5024204;28;20045;-74
2024/03/01 05:01:56;;;;;;;7.85;3.08;;;;;;;;;;5022686;28;20072;-75
2024/03/01 05:04:27;;;;;;;12.98;3.53;;;;;;;;;;5023466;28;20072;-75
2024/03/01 05:06:57;;;;;;;7.25;3.38;;;;;;;;;;5023733;28;20052;-75
2024/03/01 05:09:30;;;;;;;7.78;3.25;;;;;;;;;;5023189;28;20068;-73
2024/03/01 05:12:00;;;;;;;7.88;3.72;;;;;;;;;;5023318;28;20045;-74
2024/03/01 05:14:30;;;;;;;6.22;3.30;;;;;;;;;;5023778;28;20727;-72
2024/03/01 05:17:00;;;;;;;7.57;3.22;;;;;;;;;;5006625;28;20057;-73
2024/03/01 05:19:38;;;;;;;10.32;3.25;;;;;;;;;;5022968;28;20053;-74
2024/03/01 05:22:13;;;;;;;6.90;3.00;;;;;;;;;;5023009;28;20055;-74
2024/03/01 05:24:43;;;;;;;6.85;2.95;;;;;;;;;;5022867;28;20056;-74
2024/03/01 05:27:14;;;;;;;10.32;3.00;;;;;;;;;;5021578;28;20053;-74
2024/03/01 05:29:44;;;;;;;7.25;3.08;;;;;;;;;;5022705;28;20060;-73
2024/03/01 05:32:15;;;;;;;5.18;2.88;;;;;;;;;;5022989;28;20060;-74
2024/03/01 05:34:46;;;;;;;6.22;2.50;;;;;;;;;;5023321;28;20057;-73
2024/03/01 05:37:15;;;;;;;10.65;2.65;;;;;;;;;;5022997;28;20052;-73
2024/03/01 05:39:47;;;;;;;7.97;2.90;;;;;;;;;;5023008;28;20132;-74
2024/03/01 05:42:20;;;;;;;12.55;3.45;;;;;;;;;;5054755;28;20057;-74
2024/03/01 05:44:53;;;;;;;7.57;2.92;;;;;;;;;;5022406;28;20535;-74
2024/03/01 05:47:23;;;;;;;7.72;2.95;;;;;;;;;;5022506;28;20049;-75
2024/03/01 05:49:54;;;;;;;5.90;2.58;;;;;;;;;;5022834;28;20046;-73
2024/03/01 05:52:26;;;;;;;5.35;2.63;;;;;;;;;;5022965;28;20530;-73
2024/03/01 05:54:57;;;;;;;5.55;2.22;;;;;;;;;;5022402;28;20049;-74
2024/03/01 05:57:27;;;;;;;3.55;2.53;;;;;;;;;;5022600;28;20060;-73
2024/03/01 05:59:58;;;;;;;4.93;2.75;;;;;;;;;;5022510;28;20424;-75
2024/03/01 06:02:28;;;;;;;6.05;2.53;;;;;;;;;;5022576;28;20060;-74
2024/03/01 06:04:59;;;;;;;4.05;2.30;;;;;;;;;;5022123;28;20607;-74
2024/03/01 06:07:29;;;;;;;5.53;2.47;;;;;;;;;;5022951;28;20480;-73
2024/03/01 06:09:59;;;;;;;5.07;2.42;;;;;;;;;;5023293;28;20062;-74
2024/03/01 06:12:29;;;;;;;4.97;2.85;;;;;;;;;;5022993;28;20054;-74
2024/03/01 06:15:01;;;;;;;4.10;2.53;;;;;;;;;;5022515;28;20045;-74
2024/03/01 06:17:33;;;;;;;7.47;2.58;;;;;;;;;;5022598;28;20045;-74
2024/03/01 06:20:05;;;;;;;4.68;2.53;;;;;;;;;;5022428;28;20049;-75
2024/03/01 06:22:35;;;;;;;5.53;2.65;;;;;;;;;;5022687;28;20060;-73
2024/03/01 06:25:06;;;;;;;4.15;2.42;;;;;;;;;;5022010;28;20052;-74
2024/03/01 06:27:38;;;;;;;3.65;2.72;;;;;;;;;;5022596;28;20045;-74
2024/03/01 06:30:09;;;;;;;7.82;2.65;;;;;;;;;;5021773;28;20057;-72
2024/03/01 06:32:43;;;;;;;4.38;2.72;;;;;;;;;;5020569;28;20060;-73
2024/03/01 06:35:14;;;;;;;4.60;2.60;;;;;;;;;;5022330;28;20057;-74
2024/03/01 06:37:45;;;;;;;5.07;2.55;;;;;;;;;;5022257;28;20947;-73
2024/03/01 06:40:16;;;;;;;4.70;3.00;;;;;;;;;;5022749;28;20041;-72
2024/03/01 06:42:45;;;;;;;5.85;3.10;;;;;;;;;;5022349;28;20049;-73
2024/03/01 06:45:20;;;;;;;7.40;3.63;;;;;;;;;;5021330;28;20049;-75
2024/03/01 06:47:51;;;;;;;4.43;2.88;;;;;;;;;;5021932;28;20523;-73
2024/03/01 06:50:21;;;;;;;7.43;3.20;;;;;;;;;;5021865;28;20061;-73
2024/03/01 06:52:51;;;;;;;9.40;3.10;;;;;;;;;;5022167;28;20053;-74
2024/03/01 06:55:22;;;;;;;4.68;2.92;;;;;;;;;;5021962;28;20038;-73
2024/03/01 06:57:53;;;;;;;6.82;2.88;;;;;;;;;;5023100;28;20048;-75
2024/03/01 07:00:25;;;;;;;9.82;3.03;;;;;;;;;;5022729;28;20053;-74
2024/03/01 07:02:55;;;;;;;4.85;2.67;;;;;;;;;;5021987;28;20046;-74
2024/03/01 07:05:25;;;;;;;12.32;2.72;;;;;;;;;;5021779;28;20064;-74
2024/03/01 07:07:55;;;;;;;5.72;3.33;;;;;;;;;;5021637;28;20056;-74
2024/03/01 07:10:26;;;;;;;5.30;2.75;;;;;;;;;;5021630;28;20420;-75
2024/03/01 07:12:58;;;;;;;5.85;2.88;;;;;;;;;;5021713;28;20057;-74
2024/03/01 07:15:29;;;;;;;5.57;3.25;;;;;;;;;;5024419;28;20408;-74
2024/03/01 07:17:59;;;;;;;8.02;3.53;;;;;;;;;;5025326;28;20045;-73
2024/03/01 07:20:30;;;;;;;6.18;3.47;;;;;;;;;;5025323;28;20053;-75
2024/03/01 07:23:04;;;;;;;6.60;2.85;;;;;;;;;;5025751;28;20052;-73
2024/03/01 07:25:34;;;;;;;5.05;2.60;;;;;;;;;;5026554;28;20045;-75
2024/03/01 07:28:04;;;;;;;5.45;2.80;;;;;;;;;;5025529;28;20500;-73
2024/03/01 07:30:34;;;;;;;8.32;3.08;;;;;;;;;;5025757;28;20057;-74
2024/03/01 07:33:06;;;;;;;5.28;3.15;;;;;;;;;;5024876;28;20124;-74
2024/03/01 07:35:37;;;;;;;5.97;3.30;;;;;;;;;;5025413;28;20614;-73
2024/03/01 07:38:08;;;;;;;6.93;3.08;;;;;;;;;;5025059;28;20053;-73
2024/03/01 07:40:38;;;;;;;5.53;3.40;;;;;;;;;;5026364;28;20041;-73
2024/03/01 07:43:09;;;;;;;5.70;2.88;;;;;;;;;;5025889;28;20057;-73
2024/03/01 07:45:39;;;;;;;3.80;2.70;;;;;;;;;;5025214;28;20420;-75
2024/03/01 07:48:11;;;;;;;3.80;2.70;;;;;;;;;;5024303;28;20053;-73
2024/03/01 07:50:42;;;;;;;6.28;3.30;;;;;;;;;;5025066;28;20060;-75
2024/03/01 07:53:12;;;;;;;5.10;3.55;;;;;;;;;;5025135;28;20103;-74
2024/03/01 07:55:44;;;;;;;10.80;3.63;;;;;;;;;;5024512;28;20041;-73
2024/03/01 07:58:15;;;;;;;12.73;3.58;;;;;;;;;;5025072;28;20056;-73
2024/03/01 08:00:46;;;;;;;5.47;3.25;;;;;;;;;;5025028;28;20049;-73
2024/03/01 08:03:16;;;;;;;8.05;3.50;;;;;;;;;;5024712;28;20061;-73
2024/03/01 08:05:46;;;;;;;5.20;3.05;;;;;;;;;;5024840;28;20049;-74
2024/03/01 08:08:43;;;;;;;7.00;3.17;;;;;;;;;;5023618;28;20064;-75
2024/03/01 08:11:27;;;;;;;4.63;2.90;;;;;;;;;;5024230;28;20048;-74
2024/03/01 08:14:00;;;;;;;9.82;3.22;;;;;;;;;;5024561;28;20048;-74
2024/03/01 08:16:31;;;;;;;3.88;2.92;;;;;;;;;;5025436;28;20041;-73
2024/03/01 08:19:03;;;;;;;4.32;3.28;;;;;;;;;;5024612;28;20057;-72
2024/03/01 08:21:34;;;;;;;6.13;2.85;;;;;;;;;;5024813;28;20045;-74
2024/03/01 08:24:04;;;;;;;8.75;3.33;;;;;;;;;;5024889;28;20841;-74
2024/03/01 08:26:36;;;;;;;7.53;3.53;;;;;;;;;;5023710;28;20050;-74
2024/03/01 08:29:08;;;;;;;4.88;2.85;;;;;;;;;;5024341;28;20049;-75
2024/03/01 08:31:38;;;;;;;6.88;3.38;;;;;;;;;;5024199;28;20053;-73
2024/03/01 08:34:16;;;;;;;4.78;3.25;;;;;;;;;;5024629;28;20972;-75
2024/03/01 08:36:52;;;;;;;4.75;3.15;;;;;;;;;;5024285;28;20045;-74
2024/03/01 08:39:25;;;;;;;8.40;3.90;;;;;;;;;;5023964;28;20060;-75
2024/03/01 08:42:00;;;;;;;9.52;3.72;;;;;;;;;;5023546;28;20046;-74
2024/03/01 08:44:50;;;;;;;6.07;3.20;;;;;;;;;;5024178;28;20057;-74
2024/03/01 08:47:42;;;;;;;10.35;3.78;;;;;;;;;;5024471;28;20054;-74
2024/03/01 08:50:28;;;;;;;8.13;3.53;;;;;;;;;;5023622;28;20045;-73
2024/03/01 08:53:00;;;;;;;7.82;3.60;;;;;;;;;;5023865;28;20049;-75
2024/03/01 08:55:30;;;;;;;8.50;3.10;;;;;;;;;;5023991;28;20405;-75
2024/03/01 08:58:01;;;;;;;5.45;3.45;;;;;;;;;;5023450;28;20046;-74
2024/03/01 09:00:50;;;;;;;7.68;3.42;;;;;;;;;;5023227;28;20053;-73
2024/03/01 09:03:25;;;;;;;6.07;3.28;;;;;;;;;;5023645;28;20046;-76
2024/03/01 09:05:59;;;;;;;6.60;3.10;;;;;;;;;;5023881;28;20065;-74
2024/03/01 09:08:38;;;;;;;6.45;3.30;;;;;;;;;;5024504;28;20060;-74
2024/03/01 09:11:13;;;;;;;15.52;4.03;;;;;;;;;;5023796;28;20049;-74
2024/03/01 09:13:44;;;;;;;8.43;3.05;;;;;;;;;;5023620;28;20598;-74
2024/03/01 09:16:19;;;;;;;5.75;3.10;;;;;;;;;;5023242;28;20041;-73
2024/03/01 09:18:50;;;;;;;6.00;2.88;;;;;;;;;;5023750;28;20050;-74
2024/03/01 09:21:36;;;;;;;5.50;3.53;;;;;;;;;;5023415;28;20064;-73
2024/03/01 09:24:07;;;;;;;5.00;3.53;;;;;;;;;;5023663;28;20044;-74
2024/03/01 09:26:38;;;;;;;4.50;3.03;;;;;;;;;;5023788;28;20555;-74
2024/03/01 09:29:08;;;;;;;6.53;3.20;;;;;;;;;;5022873;28;20045;-72
2024/03/01 09:31:39;;;;;;;7.20;3.38;;;;;;;;;;5022869;28;20053;-74
2024/03/01 09:34:10;;;;;;;6.07;3.30;;;;;;;;;;5022676;28;20046;-74
2024/03/01 09:36:41;;;;;;;8.63;3.55;;;;;;;;;;5023649;28;20041;-74
2024/03/01 09:39:13;;;;;;;6.20;3.10;;;;;;;;;;5022053;28;20053;-74
2024/03/01 09:41:55;;;;;;;5.95;3.30;;;;;;;;;;5022922;28;20049;-73
2024/03/01 09:45:01;;;;;;;6.60;3.97;;;;;;;;;;5022420;28;20056;-74
2024/03/01 09:47:50;;;;;;;;;;;;;;;;;;5023239;28;20496;-74
2024/03/01 09:50:55;;;;;;;11.68;3.45;;;;;;;;;;5022958;28;20278;-75
2024/03/01 09:53:42;;;;;;;9.60;3.70;;;;;;;;;;5022893;28;20053;-74
2024/03/01 09:56:29;;;;;;;7.93;3.40;;;;;;;;;;5022400;28;20049;-75
2024/03/01 09:59:24;;;;;;;4.75;3.42;;;;;;;;;;5022210;28;20053;-74
2024/03/01 10:02:26;;;;;;;9.93;3.05;;;;;;;;;;5022081;28;20041;-74
2024/03/01 10:04:59;;;;;;;5.72;2.50;;;;;;;;;;5023118;28;20392;-74
2024/03/01 10:07:42;;;;;;;10.95;4.38;;;;;;;;;;5021954;28;20042;-75
2024/03/01 10:10:33;;;;;;;4.47;3.15;;;;;;;;;;5022365;28;20203;-75
2024/03/01 10:13:30;;;;;;;10.80;3.67;;;;;;;;;;5022287;28;20056;-74
2024/03/01 10:16:24;;;;;;;6.22;3.40;;;;;;;;;;5021903;28;20061;-75
2024/03/01 10:19:18;;;;;;;12.27;4.60;;;;;;;;;;5022141;28;20104;-77
2024/03/01 10:22:01;;;;;;;;;;;;;;;;;;5022398;28;20061;-75
2024/03/01 10:24:40;;;;;;;10.20;4.05;;;;;;;;;;5022590;28;19932;-76
2024/03/01 10:27:36;;;;;;;9.38;4.40;;;;;;;;;;5022809;28;20046;-74
2024/03/01 10:30:19;;;;;;;12.00;3.58;;;;;;;;;;5022145;28;20045;-75
2024/03/01 10:32:59;;;;;;;9.70;3.75;;;;;;;;;;5022901;28;20053;-74
2024/03/01 10:35:45;;;;;;;17.92;4.53;;;;;;;;;;5040612;28;20049;-76
2024/03/01 10:38:45;;;;;;;14.02;4.22;;;;;;;;;;5040823;28;20057;-75
2024/03/01 10:41:32;;;;;;;19.50;3.95;;;;;;;;;;5041909;28;20052;-75
2024/03/01 10:44:22;;;;;;;13.45;4.28;;;;;;;;;;5041990;28;20057;-75
2024/03/01 10:47:07;;;;;;;13.55;5.13;;;;;;;;;;5041149;28;20053;-76
2024/03/01 10:50:01;;;;;;;16.35;4.90;;;;;;;;;;5041737;28;20590;-75
2024/03/01 10:52:42;;;;;;;11.82;4.60;;;;;;;;;;5045491;28;20036;-76
2024/03/01 10:55:24;;;;;;;15.88;4.85;;;;;;;;;;5044473;28;20061;-74
2024/03/01 10:58:19;;;;;;;8.05;4.47;;;;;;;;;;5045003;28;20053;-73
2024/03/01 11:00:59;;;;;;;25.95;6.47;;;;;;;;;;5044348;28;20538;-79
2024/03/01 11:03:40;;;;;;;20.50;5.18;;;;;;;;;;5046198;28;20052;-75
2024/03/01 11:06:25;;;;;;;18.77;4.30;;;;;;;;;;5044328;28;20753;-73
2024/03/01 11:09:11;;;;;;;10.52;4.50;;;;;;;;;;5046539;28;20718;-74
2024/03/01 11:12:00;;;;;;;9.93;4.22;;;;;;;;;;5045465;28;20056;-74
2024/03/01 11:14:37;;;;;;;10.27;3.67;;;;;;;;;;5044410;28;20056;-74
2024/03/01 11:17:08;;;;;;;17.65;4.38;;;;;;;;;;5046194;28;20622;-75
2024/03/01 11:19:43;;;;;;;11.55;4.35;;;;;;;;;;5044149;28;20081;-75
2024/03/01 11:22:27;;;;;;;11.30;4.70;;;;;;;;;;5045489;28;20044;-75
2024/03/01 11:25:08;;;;;;;13.00;4.40;;;;;;;;;;5045681;28;20048;-71
2024/03/01 11:27:48;;;;;;;9.80;4.25;;;;;;;;;;5044850;28;20048;-73
2024/03/01 11:30:24;;;;;;;13.75;4.20;;;;;;;;;;5045141;28;20671;-76
2024/03/01 11:33:01;;;;;;;7.15;3.70;;;;;;;;;;5045254;28;20065;-75
2024/03/01 11:35:43;;;;;;;11.75;3.83;;;;;;;;;;5046352;28;20420;-76
2024/03/01 11:38:32;;;;;;;7.93;3.88;;;;;;;;;;5045443;28;20048;-78
2024/03/01 11:41:19;;;;;;;11.10;3.35;;;;;;;;;;5045041;28;20487;-77
2024/03/01 11:44:17;;;;;;;8.95;3.50;;;;;;;;;;5045180;28;20050;-72
2024/03/01 11:47:16;;;;;;;10.82;4.32;;;;;;;;;;5045808;28;20052;-74
2024/03/01 11:49:54;;;;;;;10.48;4.30;;;;;;;;;;5043687;28;20416;-73
2024/03/01 11:52:25;;;;;;;11.38;4.03;;;;;;;;;;5043307;28;20063;-74
2024/03/01 11:55:03;;;;;;;7.18;3.42;;;;;;;;;;5044633;28;20396;-74
2024/03/01 11:58:03;;;;;;;25.55;7.85;;;;;;;;;;5045518;28;20059;-74
2024/03/01 12:00:53;;;;;;;7.00;3.28;;;;;;;;;;5029470;28;20550;-74
2024/03/01 12:04:02;;;;;;;6.47;3.33;;;;;;;;;;5043930;28;20045;-74
2024/03/01 12:07:04;;;;;;;9.43;3.08;;;;;;;;;;5045126;28;20051;-76
2024/03/01 12:10:05;;;;;;;5.38;2.83;;;;;;;;;;5042850;28;20061;-74
2024/03/01 12:12:48;;;;;;;7.15;3.08;;;;;;;;;;5042775;28;20063;-75
2024/03/01 12:15:25;;;;;;;4.10;2.80;;;;;;;;;;5043429;28;20049;-74
2024/03/01 12:17:59;;;;;;;4.85;2.72;;;;;;;;;;5044555;28;20052;-78
2024/03/01 12:20:35;;;;;;;6.25;3.47;;;;;;;;;;5044458;28;20056;-74
2024/03/01 12:23:17;;;;;;;6.32;3.20;;;;;;;;;;5044605;28;20056;-74
2024/03/01 12:25:49;;;;;;;5.78;2.75;;;;;;;;;;5044163;28;20037;-74
2024/03/01 12:28:25;;;;;;;11.07;4.50;;;;;;;;;;5044145;28;20060;-74
2024/03/01 12:31:12;;;;;;;7.18;3.38;;;;;;;;;;5043804;28;20116;-74
2024/03/01 12:34:15;;;;;;;6.95;2.67;;;;;;;;;;5043915;28;20622;-74
2024/03/01 12:37:13;;;;;;;8.32;2.80;;;;;;;;;;5044391;28;20041;-78
2024/03/01 12:39:53;;;;;;;6.55;3.40;;;;;;;;;;5044586;28;20060;-74
2024/03/01 12:42:41;;;;;;;6.00;2.60;;;;;;;;;;5043221;28;20056;-74
2024/03/01 12:45:27;;;;;;;;;;;;;;;;;;5043905;28;20048;-74
2024/03/01 12:48:20;;;;;;;5.38;2.75;;;;;;;;;;5042269;28;19924;-74
2024/03/01 12:51:14;;;;;;;4.53;2.42;;;;;;;;;;5043226;28;20416;-74
2024/03/01 12:54:02;;;;;;;6.60;2.92;;;;;;;;;;5043262;28;21114;-73
2024/03/01 12:56:46;;;;;;;6.45;3.22;;;;;;;;;;5043813;28;20072;-75
2024/03/01 12:59:26;;;;;;;6.18;2.97;;;;;;;;;;5043690;28;20051;-74
2024/03/01 13:02:27;;;;;;;9.43;2.90;;;;;;;;;;5042296;28;20053;-73
2024/03/01 13:05:24;;;;;;;4.97;2.53;;;;;;;;;;5041907;28;20057;-75
2024/03/01 13:07:57;;;;;;;7.13;2.85;;;;;;;;;;5043103;28;20053;-79
2024/03/01 13:10:30;;;;;;;8.20;3.13;;;;;;;;;;5041944;28;20614;-73
2024/03/01 13:13:06;;;;;;;7.47;2.72;;;;;;;;;;5043493;28;20395;-77
2024/03/01 13:15:46;;;;;;;5.35;2.83;;;;;;;;;;5043488;28;20048;-74
2024/03/01 13:18:26;;;;;;;4.68;2.80;;;;;;;;;;5041929;28;20057;-75
2024/03/01 13:21:25;;;;;;;4.32;2.38;;;;;;;;;;5043355;28;20041;-73
2024/03/01 13:24:15;;;;;;;6.30;2.80;;;;;;;;;;5042509;28;20060;-75
2024/03/01 13:27:27;;;;;;;4.38;2.70;;;;;;;;;;5043509;28;20060;-78
2024/03/01 13:30:00;;;;;;;4.00;2.33;;;;;;;;;;5041921;28;20519;-74
2024/03/01 13:32:50;;;;;;;4.68;2.67;;;;;;;;;;5043097;28;20403;-74
2024/03/01 13:35:24;;;;;;;6.45;3.20;;;;;;;;;;5042535;28;20081;-74
2024/03/01 13:38:25;;;;;;;6.20;2.50;;;;;;;;;;5043018;28;20080;-74
2024/03/01 13:41:04;;;;;;;3.50;2.20;;;;;;;;;;5038137;28;20072;-75
2024/03/01 13:43:40;;;;;;;5.85;2.30;;;;;;;;;;5043156;28;20068;-75
2024/03/01 13:46:29;;;;;;;5.15;2.67;;;;;;;;;;5042987;28;20045;-74
2024/03/01 13:49:04;;;;;;;3.47;2.42;;;;;;;;;;5041045;28;20048;-73
2024/03/01 13:51:39;;;;;;;;;;;;;;;;;;5043004;28;20674;-74
2024/03/01 13:54:14;;;;;;;5.68;2.95;;;;;;;;;;5042439;28;19925;-73
2024/03/01 13:56:45;;;;;;;3.65;2.55;;;;;;;;;;5042733;28;20055;-73
2024/03/01 13:59:17;;;;;;;4.13;2.30;;;;;;;;;;5041208;28;20814;-78
2024/03/01 14:01:49;;;;;;;4.03;2.50;;;;;;;;;;5042771;28;20892;-73
2024/03/01 14:04:20;;;;;;;3.67;2.03;;;;;;;;;;5041211;28;20571;-73
2024/03/01 14:06:51;;;;;;;6.93;2.05;;;;;;;;;;5042371;28;20041;-75
2024/03/01 14:09:23;;;;;;;4.00;2.00;;;;;;;;;;5042103;28;20061;-74
2024/03/01 14:11:54;;;;;;;2.42;1.67;;;;;;;;;;5042251;28;20049;-74
2024/03/01 14:14:27;;;;;;;2.80;1.88;;;;;;;;;;5042595;28;20116;-74
2024/03/01 14:16:59;;;;;;;3.13;1.73;;;;;;;;;;5041928;28;20040;-74
2024/03/01 14:19:30;;;;;;;4.07;1.83;;;;;;;;;;5042334;28;20672;-73
2024/03/01 14:22:04;;;;;;;5.25;2.00;;;;;;;;;;5041970;28;20049;-73
2024/03/01 14:24:36;;;;;;;5.20;2.08;;;;;;;;;;5040675;28;20041;-73
2024/03/01 14:27:07;;;;;;;3.60;2.10;;;;;;;;;;5041999;28;20060;-73
2024/03/01 14:29:37;;;;;;;5.85;2.40;;;;;;;;;;5042185;28;20045;-74
2024/03/01 14:32:14;;;;;;;5.03;2.47;;;;;;;;;;5042130;28;20064;-74
2024/03/01 14:34:45;;;;;;;6.00;1.92;;;;;;;;;;5042404;28;20053;-75
2024/03/01 14:37:48;;;;;;;3.60;2.28;;;;;;;;;;5042609;28;20072;-79
2024/03/01 14:40:26;;;;;;;4.95;2.08;;;;;;;;;;5041652;28;20044;-79
2024/03/01 14:43:01;;;;;;;3.50;2.08;;;;;;;;;;5040946;28;20096;-75
2024/03/01 14:45:42;;;;;;;4.47;1.92;;;;;;;;;;5041922;28;20052;-74
2024/03/01 14:48:40;;;;;;;2.85;1.67;;;;;;;;;;5041579;28;20064;-73
2024/03/01 14:51:11;;;;;;;5.93;2.00;;;;;;;;;;5024210;28;20060;-78
2024/03/01 14:53:50;;;;;;;3.92;1.52;;;;;;;;;;5041163;28;20426;-75
2024/03/01 14:56:22;;;;;;;3.58;1.92;;;;;;;;;;5042071;28;20539;-74
2024/03/01 14:58:54;;;;;;;4.13;1.92;;;;;;;;;;5040449;28;20519;-75
2024/03/01 15:01:26;;;;;;;7.03;2.05;;;;;;;;;;5041385;28;20041;-75
2024/03/01 15:04:00;;;;;;;3.40;1.73;;;;;;;;;;5041947;28;20522;-75
2024/03/01 15:06:33;;;;;;;2.97;2.17;;;;;;;;;;5039986;28;20056;-81
2024/03/01 15:09:07;;;;;;;5.88;2.50;;;;;;;;;;5041585;28;20500;-77
2024/03/01 15:11:38;;;;;;;5.72;2.03;;;;;;;;;;5041655;28;20049;-74
2024/03/01 15:14:46;;;;;;;2.20;1.80;;;;;;;;;;5041368;28;20056;-74
2024/03/01 15:20:15;;;;;;;3.30;1.92;;;;;;;;;;5041278;28;20060;-75
2024/03/01 15:22:53;;;;;;;2.90;1.60;;;;;;;;;;5025507;28;20061;-76
2024/03/01 15:25:25;;;;;;;2.15;1.40;;;;;;;;;;5041316;28;20048;-74
2024/03/01 15:28:27;;;;;;;6.97;1.70;;;;;;;;;;5041569;28;20056;-76
2024/03/01 15:31:09;;;;;;;4.07;1.85;;;;;;;;;;5040911;28;20056;-80
2024/03/01 15:33:42;;;;;;;3.72;1.65;;;;;;;;;;5042339;28;20057;-75
2024/03/01 15:36:13;;;;;;;2.80;1.17;;;;;;;;;;5043839;28;20428;-75
2024/03/01 15:38:48;;;;;;;3.03;1.45;;;;;;;;;;5046497;28;20048;-74